Flood From: 18-02-2018 16:00 Until: 19-02-2018 16:00 warning for: Flood Level: Yellow info button

Although rather usual in this region, locally or potentially dangerous phenomena are expected. (such as local winds, summer thunderstorms, rising streams or high waves) Be aware and pay attention to the latest weather updates, especially if you carry out activities exposed to weather or close to a stream or shoreline. 


Meteo18 Weather Cam more information Meteo18 Weather Cam


Thunder radar more information blitzortung!


Rain radar more information rain snow radar


Visit our other weather sites:

Template documentation
and downloads

And another site



Weather Underground History page Text

Daily Summary for May 23, 2017 Units:  Metric    English   Both
« Previous Day
Next Day »
Daily Weekly Monthly Yearly Custom
  High: Low: Average:
Temperature: -17.8 °C -11.3 °C -7.5 °C
Dew Point: -17.8 °C -11.7 °C -9.9 °C
Humidity: Humidity % 52 % 77 %
Wind Speed: 0 km/h 0 km/h 4.8 km/h
Wind Gust: 0 km/h - -
Wind:- - West
Pressure: 0 hPa 34496.6 hPa -
Precipitation: 0 mm    
Historical Graphs
 
 
Tabular Data for May 23, 2017
Time Temperature Dew Point Pressure Wind Wind Speed Wind Gust Humidity Rainfall Rate (Hourly)
-17.8 °C -17.8 °C 0 hPa Calm     Humidity % 0 mm
00:02 -7.6 °C -9.8 °C 34496.6 hPa WNW 2.6 km/h 12.9 km/h 77 % 0 mm
00:07 -7.6 °C -9.8 °C 34496.6 hPa Calm   10.3 km/h 78 % 0 mm
00:12 -7.6 °C -9.8 °C 34496.6 hPa Calm   10.3 km/h 78 % 0 mm
00:17 -7.7 °C -9.9 °C 34496.6 hPa Calm   7.7 km/h 78 % 0 mm
00:22 -7.8 °C -9.8 °C 34496.6 hPa WNW 2.6 km/h 7.7 km/h 79 % 0 mm
00:27 -7.8 °C -9.9 °C 34496.6 hPa Calm   7.7 km/h 79 % 0 mm
00:32 -7.8 °C -9.9 °C 34496.6 hPa WNW 2.6 km/h 7.7 km/h 79 % 0 mm
00:37 -7.9 °C -9.9 °C 34510.1 hPa North 2.6 km/h 7.7 km/h 79 % 0 mm
00:42 -7.9 °C -9.9 °C 34510.1 hPa WNW 2.6 km/h 7.7 km/h 80 % 0 mm
00:52 -8 °C -9.9 °C 34510.1 hPa WNW 5.1 km/h 7.7 km/h 80 % 0 mm
00:57 -8 °C -9.9 °C 34510.1 hPa WNW 2.6 km/h 7.7 km/h 80 % 0 mm
01:02 -8.1 °C -10 °C 34510.1 hPa Calm   7.7 km/h 80 % 0 mm
01:07 -8.2 °C -10.1 °C 34510.1 hPa Calm   7.7 km/h 81 % 0 mm
01:12 -8.4 °C -10 °C 34510.1 hPa Calm   7.7 km/h 83 % 0 mm
01:17 -8.4 °C -10 °C 34510.1 hPa Calm   2.6 km/h 83 % 0 mm
01:22 -8.4 °C -10.1 °C 34510.1 hPa Calm   2.6 km/h 83 % 0 mm
01:32 -8.6 °C -10.1 °C 34510.1 hPa Calm   2.6 km/h 84 % 0 mm
01:42 -8.8 °C -10.2 °C 34510.1 hPa Calm     85 % 0 mm
01:47 -8.9 °C -10.3 °C 34510.1 hPa Calm     85 % 0 mm
01:52 -8.9 °C -10.2 °C 34510.1 hPa Calm     86 % 0 mm
01:57 -9 °C -10.3 °C 34510.1 hPa Calm     86 % 0 mm
02:02 -8.9 °C -10.2 °C 34510.1 hPa Calm     87 % 0 mm
02:12 -9 °C -10.2 °C 34510.1 hPa Calm     87 % 0 mm
02:17 -9 °C -10.2 °C 34510.1 hPa Calm     87 % 0 mm
02:22 -9 °C -10.2 °C 34496.6 hPa WSW 5.1 km/h   87 % 0 mm
02:32 -9.1 °C -10.3 °C 34510.1 hPa SSW 2.6 km/h 5.1 km/h 87 % 0 mm
02:37 -9.1 °C -10.3 °C 34510.1 hPa Calm   5.1 km/h 87 % 0 mm
02:47 -9.3 °C -10.5 °C 34510.1 hPa Calm   2.6 km/h 87 % 0 mm
02:52 -9.4 °C -10.5 °C 34510.1 hPa Calm   2.6 km/h 88 % 0 mm
02:57 -9.5 °C -10.5 °C 34510.1 hPa Calm   2.6 km/h 89 % 0 mm
03:02 -9.6 °C -10.4 °C 34510.1 hPa Calm   2.6 km/h 90 % 0 mm
03:12 -9.6 °C -10.4 °C 34510.1 hPa Calm   2.6 km/h 90 % 0 mm
03:17 -9.6 °C -10.5 °C 34510.1 hPa Calm     90 % 0 mm
03:22 -9.6 °C -10.5 °C 34510.1 hPa Calm     90 % 0 mm
03:27 -9.7 °C -10.5 °C 34510.1 hPa Calm   2.6 km/h 91 % 0 mm
03:32 -9.8 °C -10.6 °C 34510.1 hPa Calm   2.6 km/h 91 % 0 mm
03:42 -9.9 °C -10.7 °C 34510.1 hPa Calm   2.6 km/h 91 % 0 mm
03:47 -9.9 °C -10.7 °C 34510.1 hPa Calm   2.6 km/h 92 % 0 mm
03:52 -10.1 °C -10.8 °C 34510.1 hPa Calm   2.6 km/h 92 % 0 mm
04:02 -10.2 °C -10.9 °C 34510.1 hPa Calm   2.6 km/h 92 % 0 mm
04:07 -10.3 °C -11.1 °C 34510.1 hPa Calm   2.6 km/h 92 % 0 mm
04:12 -10.4 °C -11.1 °C 34510.1 hPa Calm   2.6 km/h 92 % 0 mm
04:17 -10.4 °C -11.1 °C 34510.1 hPa Calm   2.6 km/h 93 % 0 mm
04:22 -10.4 °C -11.1 °C 34510.1 hPa Calm   2.6 km/h 93 % 0 mm
04:27 -10.5 °C -11.1 °C 34520.3 hPa Calm   2.6 km/h 93 % 0 mm
04:32 -10.5 °C -11.1 °C 34520.3 hPa Calm   2.6 km/h 93 % 0 mm
04:37 -10.6 °C -11.2 °C 34520.3 hPa Calm   2.6 km/h 93 % 0 mm
04:42 -10.6 °C -11.1 °C 34520.3 hPa Calm   2.6 km/h 94 % 0 mm
04:47 -10.8 °C -11.4 °C 34520.3 hPa Calm   2.6 km/h 93 % 0 mm
04:52 -10.8 °C -11.3 °C 34520.3 hPa Calm   2.6 km/h 94 % 0 mm
04:57 -10.8 °C -11.3 °C 34520.3 hPa Calm   2.6 km/h 94 % 0 mm
05:02 -10.8 °C -11.3 °C 34520.3 hPa Calm   2.6 km/h 94 % 0 mm
05:12 -10.8 °C -11.3 °C 34520.3 hPa Calm     94 % 0 mm
05:17 -10.9 °C -11.4 °C 34520.3 hPa Calm     94 % 0 mm
05:22 -11 °C -11.5 °C 34520.3 hPa Calm     94 % 0 mm
05:32 -11.1 °C -11.5 °C 34520.3 hPa Calm     95 % 0 mm
05:42 -11 °C -11.4 °C 34533.8 hPa Calm   5.1 km/h 95 % 0 mm
05:47 -10.9 °C -11.4 °C 34533.8 hPa South 5.1 km/h 5.1 km/h 95 % 0 mm
05:52 -11 °C -11.4 °C 34533.8 hPa Calm   5.1 km/h 95 % 0 mm
06:02 -11.2 °C -11.6 °C 34533.8 hPa SSE 2.6 km/h 5.1 km/h 95 % 0 mm
06:07 -11.2 °C -11.7 °C 34533.8 hPa South 5.1 km/h 5.1 km/h 95 % 0 mm
06:12 -11.3 °C -11.7 °C 34533.8 hPa Calm   5.1 km/h 95 % 0 mm
06:17 -11.3 °C -11.7 °C 34533.8 hPa Calm   5.1 km/h 95 % 0 mm
06:22 -11.3 °C -11.7 °C 34533.8 hPa Calm   5.1 km/h 95 % 0 mm
06:27 -11.3 °C -11.6 °C 34533.8 hPa Calm   5.1 km/h 96 % 0 mm
06:32 -11.3 °C -11.7 °C 34533.8 hPa Calm   5.1 km/h 95 % 0 mm
06:37 -11.3 °C -11.6 °C 34544 hPa Calm   2.6 km/h 96 % 0 mm
06:42 -11.2 °C -11.5 °C 34544 hPa Calm   2.6 km/h 96 % 0 mm
06:47 -11.1 °C -11.4 °C 34544 hPa Calm     96 % 0 mm
06:52 -11.1 °C -11.4 °C 34544 hPa Calm     96 % 0 mm
07:02 -11.1 °C -11.4 °C 34554.1 hPa Calm   2.6 km/h 96 % 0 mm
07:12 -10.9 °C -11.3 °C 34554.1 hPa Calm   2.6 km/h 96 % 0 mm
07:17 -10.9 °C -11.3 °C 34554.1 hPa Calm   2.6 km/h 96 % 0 mm
07:22 -10.8 °C -11.2 °C 34567.7 hPa Calm   2.6 km/h 96 % 0 mm
07:32 -10.6 °C -10.9 °C 34567.7 hPa South 2.6 km/h 2.6 km/h 96 % 0 mm
07:42 -10.2 °C -10.6 °C 34567.7 hPa SSW 7.7 km/h 7.7 km/h 96 % 0 mm
07:47 -10.1 °C -10.4 °C 34577.8 hPa SSW 7.7 km/h 12.9 km/h 96 % 0 mm
07:52 -9.9 °C -10.3 °C 34577.8 hPa SW 5.1 km/h 12.9 km/h 96 % 0 mm
07:57 -9.8 °C -10.2 °C 34577.8 hPa SW 5.1 km/h 12.9 km/h 96 % 0 mm
08:02 -9.6 °C -10.1 °C 34577.8 hPa WSW 5.1 km/h 12.9 km/h 95 % 0 mm
08:12 -9.3 °C -9.8 °C 34577.8 hPa SW 7.7 km/h 12.9 km/h 94 % 0 mm
08:17 -9.2 °C -9.8 °C 34591.4 hPa South 5.1 km/h 7.7 km/h 93 % 0 mm
08:22 -9.1 °C -9.8 °C 34591.4 hPa SW 7.7 km/h 7.7 km/h 92 % 0 mm
08:32 -8.8 °C -9.7 °C 34591.4 hPa Calm   10.3 km/h 91 % 0 mm
08:42 -8.7 °C -9.7 °C 34591.4 hPa SE 5.1 km/h 12.9 km/h 89 % 0 mm
08:47 -8.5 °C -9.5 °C 34591.4 hPa South 2.6 km/h 12.9 km/h 89 % 0 mm
08:52 -8.4 °C -9.4 °C 34591.4 hPa South 2.6 km/h 12.9 km/h 89 % 0 mm
08:57 -8.2 °C -9.4 °C 34591.4 hPa Calm   10.3 km/h 87 % 0 mm
09:02 -8.1 °C -9.4 °C 34601.5 hPa SSE 5.1 km/h 10.3 km/h 86 % 0 mm
09:12 -8.1 °C -9.3 °C 34601.5 hPa SSW 5.1 km/h 10.3 km/h 87 % 0 mm
09:22 -8.1 °C -9.3 °C 34601.5 hPa West 5.1 km/h 12.9 km/h 87 % 0 mm
09:32 -8 °C -9.3 °C 34611.7 hPa SW 10.3 km/h 18.2 km/h 86 % 0 mm
09:42 -7.9 °C -9.2 °C 34611.7 hPa SSW 10.3 km/h 15.6 km/h 86 % 0 mm
09:47 -7.9 °C -9.4 °C 34611.7 hPa SW 10.3 km/h 20.8 km/h 85 % 0 mm
09:52 -7.9 °C -9.3 °C 34611.7 hPa SSW 10.3 km/h 20.8 km/h 86 % 0 mm
09:57 -7.8 °C -9.3 °C 34611.7 hPa SSW 12.9 km/h 23.3 km/h 85 % 0 mm
10:02 -7.8 °C -9.2 °C 34611.7 hPa South 12.9 km/h 23.3 km/h 86 % 0 mm
10:12 -7.8 °C -9.3 °C 34611.7 hPa SW 23.3 km/h 23.3 km/h 85 % 0 mm
10:17 -7.8 °C -9.2 °C 34611.7 hPa SSW 20.8 km/h 25.9 km/h 86 % 0 mm
10:22 -7.9 °C -9.3 °C 34611.7 hPa SSW 18.2 km/h 25.9 km/h 85 % 0 mm
10:32 -7.7 °C -9.2 °C 34625.2 hPa SSW 20.8 km/h 28.5 km/h 85 % 0 mm
10:42 -7.6 °C -9.1 °C 34625.2 hPa SW 15.6 km/h 31.1 km/h 85 % 0 mm
10:52 -7.7 °C -9.2 °C 34625.2 hPa SSW 15.6 km/h 31.1 km/h 84 % 0 mm
11:02 -7.6 °C -9.2 °C 34625.2 hPa SW 15.6 km/h 33.6 km/h 83 % 0 mm
11:07 -7.6 °C -9.1 °C 34625.2 hPa SSW 12.9 km/h 31.1 km/h 84 % 0 mm
11:12 -7.4 °C -9.1 °C 34625.2 hPa SSW 12.9 km/h 31.1 km/h 83 % 0 mm
11:17 -7.3 °C -8.9 °C 34635.4 hPa SW 15.6 km/h 31.1 km/h 83 % 0 mm
11:22 -7.2 °C -8.8 °C 34635.4 hPa West 7.7 km/h 31.1 km/h 83 % 0 mm
11:32 -7.1 °C -8.8 °C 34635.4 hPa West 12.9 km/h 25.9 km/h 82 % 0 mm
11:42 -7.1 °C -8.9 °C 34635.4 hPa South 15.6 km/h 28.5 km/h 81 % 0 mm
11:52 -6.8 °C -8.8 °C 34645.6 hPa West 7.7 km/h 28.5 km/h 80 % 0 mm
12:02 -6.6 °C -8.7 °C 34645.6 hPa West 10.3 km/h 25.9 km/h 79 % 0 mm
12:12 -6.3 °C -8.7 °C 34635.4 hPa WSW 12.9 km/h 28.5 km/h 76 % 0 mm
12:17 -6.2 °C -8.7 °C 34635.4 hPa West 5.1 km/h 28.5 km/h 76 % 0 mm
12:22 -6.2 °C -8.7 °C 34645.6 hPa SSW 10.3 km/h 28.5 km/h 76 % 0 mm
12:32 -6.1 °C -8.6 °C 34635.4 hPa West 7.7 km/h 25.9 km/h 76 % 0 mm
12:42 -6 °C -8.6 °C 34635.4 hPa WNW 2.6 km/h 25.9 km/h 75 % 0 mm
12:47 -5.9 °C -8.7 °C 34635.4 hPa NW 7.7 km/h 25.9 km/h 73 % 0 mm
12:52 -6.1 °C -8.8 °C 34635.4 hPa WNW 5.1 km/h 25.9 km/h 73 % 0 mm
13:02 -5.8 °C -9.1 °C 34635.4 hPa West 10.3 km/h 20.8 km/h 69 % 0 mm
13:07 -5.8 °C -8.9 °C 34645.6 hPa WNW 12.9 km/h 31.1 km/h 70 % 0 mm
13:17 -5.5 °C -8.9 °C 34645.6 hPa WSW 10.3 km/h 31.1 km/h 68 % 0 mm
13:22 -5.3 °C -8.8 °C 34645.6 hPa West 7.7 km/h 31.1 km/h 68 % 0 mm
13:27 -5.2 °C -8.8 °C 34645.6 hPa NW 2.6 km/h 23.3 km/h 67 % 0 mm
13:32 -5.3 °C -9 °C 34645.6 hPa WNW 5.1 km/h 23.3 km/h 66 % 0 mm
13:37 -5.5 °C -9.3 °C 34645.6 hPa Calm   23.3 km/h 65 % 0 mm
13:42 -5.4 °C -8.8 °C 34645.6 hPa WNW 7.7 km/h 23.3 km/h 68 % 0 mm
13:47 -5.2 °C -8.9 °C 34645.6 hPa WSW 12.9 km/h 20.8 km/h 66 % 0 mm
13:52 -5.2 °C -9.1 °C 34645.6 hPa WSW 18.2 km/h 20.8 km/h 65 % 0 mm
13:57 -5.3 °C -9.2 °C 34635.4 hPa WSW 5.1 km/h 23.3 km/h 65 % 0 mm
14:02 -5.3 °C -8.9 °C 34645.6 hPa West 5.1 km/h 23.3 km/h 67 % 0 mm
14:12 -5.2 °C -8.8 °C 34645.6 hPa WSW 2.6 km/h 23.3 km/h 67 % 0 mm
14:17 -5.3 °C -9.1 °C 34645.6 hPa NNE 5.1 km/h 18.2 km/h 66 % 0 mm
14:22 -5.2 °C -8.8 °C 34645.6 hPa NNW 7.7 km/h 18.2 km/h 67 % 0 mm
14:27 -5.3 °C -8.9 °C 34635.4 hPa WNW 2.6 km/h 18.2 km/h 67 % 0 mm
14:32 -5.2 °C -8.9 °C 34635.4 hPa West 7.7 km/h 18.2 km/h 66 % 0 mm
14:37 -5.3 °C -9.1 °C 34635.4 hPa WNW 10.3 km/h 20.8 km/h 66 % 0 mm
14:42 -5.3 °C -9.1 °C 34635.4 hPa West 2.6 km/h 20.8 km/h 66 % 0 mm
14:52 -5 °C -9.4 °C 34635.4 hPa SW 7.7 km/h 18.2 km/h 61 % 0 mm
14:57 -4.9 °C -9.4 °C 34635.4 hPa SW 10.3 km/h 25.9 km/h 60 % 0 mm
15:02 -4.8 °C -8.8 °C 34635.4 hPa WNW 7.7 km/h 25.9 km/h 64 % 0 mm
15:12 -4.8 °C -9.2 °C 34645.6 hPa West 12.9 km/h 20.8 km/h 61 % 0 mm
15:17 -4.8 °C -9.2 °C 34645.6 hPa SW 2.6 km/h 28.5 km/h 61 % 0 mm
15:22 -4.5 °C -8.9 °C 34645.6 hPa WSW 2.6 km/h 28.5 km/h 61 % 0 mm
15:27 -4.4 °C -9.1 °C 34645.6 hPa West 5.1 km/h 23.3 km/h 59 % 0 mm
15:32 -4.6 °C -9 °C 34645.6 hPa NNW 2.6 km/h 23.3 km/h 61 % 0 mm
15:37 -4.7 °C -8.9 °C 34645.6 hPa WNW 2.6 km/h 15.6 km/h 62 % 0 mm
15:42 -4.8 °C -9.1 °C 34645.6 hPa WNW 12.9 km/h 15.6 km/h 62 % 0 mm
15:47 -4.9 °C -9.1 °C 34645.6 hPa NW 7.7 km/h 18.2 km/h 63 % 0 mm
15:52 -5.1 °C -9.3 °C 34645.6 hPa NW 10.3 km/h 18.2 km/h 62 % 0 mm
15:57 -5.1 °C -9.4 °C 34645.6 hPa WNW 7.7 km/h 23.3 km/h 62 % 0 mm
16:02 -5.1 °C -9.2 °C 34645.6 hPa NNE 7.7 km/h 23.3 km/h 63 % 0 mm
16:07 -5.1 °C -9.4 °C 34645.6 hPa NNE 5.1 km/h 15.6 km/h 62 % 0 mm
16:12 -5.2 °C -9.2 °C 34645.6 hPa West 2.6 km/h 15.6 km/h 64 % 0 mm
16:17 -5.3 °C -9.1 °C 34645.6 hPa NW 5.1 km/h 18.2 km/h 65 % 0 mm
16:22 -5.2 °C -9.2 °C 34645.6 hPa NNW 7.7 km/h 18.2 km/h 64 % 0 mm
16:32 -4.8 °C -8.8 °C 34645.6 hPa NW 15.6 km/h 20.8 km/h 64 % 0 mm
16:37 -4.8 °C -9.4 °C 34645.6 hPa WNW 5.1 km/h 25.9 km/h 60 % 0 mm
16:42 -4.6 °C -9.1 °C 34645.6 hPa WSW 5.1 km/h 25.9 km/h 61 % 0 mm
16:47 -4.7 °C -9 °C 34645.6 hPa WNW 2.6 km/h 20.8 km/h 62 % 0 mm
16:52 -4.7 °C -9.1 °C 34645.6 hPa North 2.6 km/h 20.8 km/h 61 % 0 mm
16:57 -4.8 °C -9.1 °C 34645.6 hPa NNW 5.1 km/h 18.2 km/h 62 % 0 mm
17:02 -4.7 °C -8.8 °C 34645.6 hPa North 7.7 km/h 18.2 km/h 63 % 0 mm
17:12 -4.6 °C -8.8 °C 34645.6 hPa North 10.3 km/h 20.8 km/h 63 % 0 mm
17:17 -4.7 °C -9.1 °C 34645.6 hPa North 7.7 km/h 23.3 km/h 61 % 0 mm
17:22 -4.8 °C -9.2 °C 34645.6 hPa North 15.6 km/h 23.3 km/h 61 % 0 mm
17:27 -4.7 °C -8.9 °C 34645.6 hPa NW 5.1 km/h 31.1 km/h 62 % 0 mm
17:32 -4.6 °C -9.1 °C 34645.6 hPa West 5.1 km/h 31.1 km/h 61 % 0 mm
17:37 -4.7 °C -9.2 °C 34645.6 hPa NNW 7.7 km/h 31.1 km/h 60 % 0 mm
17:42 -4.7 °C -9.2 °C 34645.6 hPa WNW 18.2 km/h 31.1 km/h 60 % 0 mm
17:52 -4.8 °C -9.6 °C 34645.6 hPa NNW 7.7 km/h 23.3 km/h 58 % 0 mm
17:57 -4.8 °C -9.6 °C 34645.6 hPa NW 2.6 km/h 23.3 km/h 58 % 0 mm
18:02 -4.7 °C -9.7 °C 34645.6 hPa NE 7.7 km/h 23.3 km/h 57 % 0 mm
18:07 -4.7 °C -9.5 °C 34645.6 hPa NW 5.1 km/h 23.3 km/h 58 % 0 mm
18:12 -4.7 °C -9.2 °C 34645.6 hPa WNW 2.6 km/h 23.3 km/h 60 % 0 mm
18:17 -4.8 °C -9.5 °C 34645.6 hPa NNW 10.3 km/h 28.5 km/h 59 % 0 mm
18:22 -4.8 °C -9.2 °C 34645.6 hPa NNW 7.7 km/h 28.5 km/h 61 % 0 mm
18:32 -4.9 °C -9.2 °C 34645.6 hPa WNW 2.6 km/h 25.9 km/h 62 % 0 mm
18:37 -4.9 °C -9.4 °C 34645.6 hPa NNW 12.9 km/h 25.9 km/h 60 % 0 mm
18:42 -4.9 °C -9.2 °C 34659.1 hPa NNW 12.9 km/h 25.9 km/h 62 % 0 mm
18:47 -4.8 °C -9.6 °C 34645.6 hPa NW 10.3 km/h 23.3 km/h 59 % 0 mm
18:52 -4.9 °C -9.6 °C 34645.6 hPa NNW 5.1 km/h 23.3 km/h 59 % 0 mm
18:57 -4.9 °C -9.7 °C 34645.6 hPa NNW 10.3 km/h 31.1 km/h 58 % 0 mm
19:02 -4.9 °C -10.2 °C 34645.6 hPa NW 7.7 km/h 31.1 km/h 55 % 0 mm
19:07 -5.1 °C -10.2 °C 34659.1 hPa NW 5.1 km/h 23.3 km/h 56 % 0 mm
19:12 -5.1 °C -10.3 °C 34659.1 hPa NW 7.7 km/h 23.3 km/h 55 % 0 mm
19:17 -5.1 °C -10.8 °C 34659.1 hPa WNW 12.9 km/h 20.8 km/h 52 % 0 mm
19:22 -4.9 °C -10.6 °C 34659.1 hPa NNW 7.7 km/h 20.8 km/h 53 % 0 mm
19:32 -5.2 °C -10 °C 34659.1 hPa North 7.7 km/h 20.8 km/h 58 % 0 mm
19:37 -5.2 °C -10.1 °C 34669.3 hPa NW 7.7 km/h 18.2 km/h 58 % 0 mm
19:42 -5.2 °C -10.1 °C 34669.3 hPa WNW 2.6 km/h 18.2 km/h 58 % 0 mm
19:52 -5.2 °C -10.2 °C 34659.1 hPa NNW 7.7 km/h 12.9 km/h 57 % 0 mm
20:02 -5.4 °C -9.9 °C 34669.3 hPa NW 7.7 km/h 12.9 km/h 60 % 0 mm
20:12 -5.4 °C -9.7 °C 34669.3 hPa NNW 5.1 km/h 15.6 km/h 62 % 0 mm
20:17 -5.4 °C -9.7 °C 34669.3 hPa NW 2.6 km/h 15.6 km/h 62 % 0 mm
20:22 -5.4 °C -9.7 °C 34669.3 hPa NNW 2.6 km/h 15.6 km/h 62 % 0 mm
20:27 -5.4 °C -9.7 °C 34669.3 hPa NNW 2.6 km/h 10.3 km/h 62 % 0 mm
20:32 -5.4 °C -9.8 °C 34669.3 hPa NW 7.7 km/h 10.3 km/h 61 % 0 mm
20:37 -5.4 °C -9.7 °C 34669.3 hPa NNW 5.1 km/h 12.9 km/h 62 % 0 mm
20:42 -5.7 °C -9.8 °C 34682.8 hPa NW 2.6 km/h 12.9 km/h 63 % 0 mm
20:47 -5.9 °C -9.7 °C 34682.8 hPa WNW 2.6 km/h 12.9 km/h 65 % 0 mm
20:57 -6.2 °C -9.7 °C 34682.8 hPa NNW 7.7 km/h 7.7 km/h 67 % 0 mm
21:02 -6.3 °C -9.7 °C 34682.8 hPa NNW 5.1 km/h 7.7 km/h 68 % 0 mm
21:07 -6.5 °C -9.8 °C 34682.8 hPa NNW 2.6 km/h 10.3 km/h 69 % 0 mm
21:12 -6.6 °C -9.7 °C 34682.8 hPa NNW 2.6 km/h 10.3 km/h 70 % 0 mm
21:17 -6.7 °C -9.7 °C 34682.8 hPa Calm   7.7 km/h 71 % 0 mm
21:22 -6.8 °C -9.7 °C 34682.8 hPa WNW 2.6 km/h 7.7 km/h 72 % 0 mm
21:32 -7 °C -9.9 °C 34682.8 hPa Calm   5.1 km/h 72 % 0 mm
21:37 -7.1 °C -9.8 °C 34682.8 hPa Calm   5.1 km/h 73 % 0 mm
21:42 -7.1 °C -9.7 °C 34682.8 hPa NW 2.6 km/h 5.1 km/h 74 % 0 mm
21:52 -7.3 °C -9.8 °C 34693 hPa Calm   5.1 km/h 75 % 0 mm
21:57 -7.4 °C -9.9 °C 34693 hPa NW 2.6 km/h 5.1 km/h 75 % 0 mm
22:02 -7.4 °C -9.8 °C 34693 hPa NW 5.1 km/h 5.1 km/h 76 % 0 mm
22:07 -7.6 °C -9.9 °C 34693 hPa NW 2.6 km/h 7.7 km/h 76 % 0 mm
22:12 -7.6 °C -10 °C 34693 hPa NW 2.6 km/h 7.7 km/h 76 % 0 mm
22:17 -7.7 °C -9.9 °C 34703.1 hPa West 5.1 km/h 7.7 km/h 77 % 0 mm
22:22 -7.7 °C -10 °C 34703.1 hPa WNW 2.6 km/h 7.7 km/h 77 % 0 mm
22:32 -7.9 °C -10.1 °C 34703.1 hPa Calm   7.7 km/h 78 % 0 mm
22:37 -8 °C -10.2 °C 34703.1 hPa Calm   7.7 km/h 78 % 0 mm
22:42 -8.1 °C -10.3 °C 34703.1 hPa Calm   7.7 km/h 78 % 0 mm
22:52 -8.2 °C -10.2 °C 34703.1 hPa Calm   5.1 km/h 79 % 0 mm
22:57 -8.2 °C -10.3 °C 34703.1 hPa Calm   2.6 km/h 79 % 0 mm
23:02 -8.3 °C -10.4 °C 34703.1 hPa Calm   2.6 km/h 79 % 0 mm
23:12 -8.4 °C -10.4 °C 34703.1 hPa Calm     80 % 0 mm
23:17 -8.4 °C -10.4 °C 34703.1 hPa Calm     80 % 0 mm
23:22 -8.5 °C -10.4 °C 34703.1 hPa NW 5.1 km/h   80 % 0 mm
23:32 -8.5 °C -10.4 °C 34703.1 hPa North 2.6 km/h 5.1 km/h 80 % 0 mm
23:42 -8.6 °C -10.5 °C 34703.1 hPa NW 5.1 km/h 5.1 km/h 80 % 0 mm
23:52 -8.6 °C -10.6 °C 34703.1 hPa WNW 2.6 km/h 5.1 km/h 80 % 0 mm
23:57 -8.7 °C -10.6 °C 34703.1 hPa WNW 7.7 km/h 10.3 km/h 80 % 0 mm
Meteo18
Compliments of Weather Underground - 4 mb

Script developed by  Jim McMurry - jmcmurry@mwt.net Adapted for the template by  Wim van der Kuil - Leuven-Template.eu

You find our weather info also at:

European Weather Network

Weather Underground

Equipment we use:

Weather-station
Davis Vue

Weather-program
Meteobridge

Weather-server
Raspberry PI 2 B+

Provider
1 and 1

Davis Vue

Meteobridge

Raspberry PI 2 B+

1 and 1